createdAt,value
2019-01-25T02:17:44.521Z,65.33
2019-01-25T02:52:44.132Z,65.02
2019-01-25T03:37:43.630Z,66.07
2019-01-25T06:37:41.625Z,67.21
2019-01-25T06:42:41.568Z,68.04
2019-01-25T06:44:41.550Z,67.94
2019-01-25T07:09:41.268Z,67.73
2019-01-25T08:08:40.625Z,64.16
2019-01-25T09:31:39.688Z,66.29
2019-01-25T09:32:39.678Z,65.84
2019-01-25T09:33:39.669Z,64.80
2019-01-25T09:34:39.658Z,64.48
2019-01-25T09:35:39.644Z,64.63
2019-01-25T09:36:39.638Z,62.62
2019-01-25T09:37:39.621Z,60.40
2019-01-25T09:38:39.611Z,60.32
2019-01-25T09:39:39.598Z,61.08
2019-01-25T09:40:39.588Z,61.29
2019-01-25T09:41:39.675Z,61.19
2019-01-25T09:42:39.567Z,60.66
2019-01-25T09:43:39.563Z,60.77
2019-01-25T09:44:39.543Z,60.98
2019-01-25T09:45:39.598Z,61.60
2019-01-25T09:46:39.520Z,61.11
2019-01-25T09:47:39.509Z,61.42
2019-01-25T09:48:39.499Z,61.19
2019-01-25T09:49:39.488Z,60.80
2019-01-25T09:50:39.475Z,61.63
2019-01-25T09:51:39.475Z,61.01
2019-01-25T09:52:39.456Z,61.63
2019-01-25T09:53:39.444Z,61.32
2019-01-25T09:54:39.437Z,60.48
2019-01-25T09:55:39.421Z,60.69
2019-01-25T09:56:39.417Z,60.90
2019-01-25T09:57:39.399Z,61.66
2019-01-25T09:58:39.387Z,61.01
2019-01-25T09:59:39.381Z,60.69
2019-01-25T10:00:39.368Z,61.04
2019-01-25T10:01:39.354Z,60.27
2019-01-25T10:02:39.343Z,60.30
2019-01-25T10:03:39.332Z,60.62
2019-01-25T10:04:39.324Z,59.78
2019-01-25T10:05:39.310Z,59.88
2019-01-25T10:06:39.299Z,59.88
2019-01-25T10:07:39.287Z,59.68
2019-01-25T10:08:39.277Z,59.68
2019-01-25T10:09:39.264Z,59.68
2019-01-25T10:10:39.259Z,59.75
2019-01-25T10:11:39.244Z,59.86
2019-01-25T10:12:43.533Z,59.57
2019-01-25T10:13:39.221Z,59.68
2019-01-25T10:14:39.219Z,60.27
2019-01-25T10:15:39.199Z,60.48
2019-01-25T10:16:39.187Z,60.51
2019-01-25T10:17:39.175Z,60.62
2019-01-25T10:18:39.166Z,60.41
2019-01-25T10:19:39.155Z,60.62
2019-01-25T10:20:39.142Z,61.69
2019-01-25T10:21:39.130Z,62.10
2019-01-25T10:22:39.119Z,62.42
2019-01-25T10:23:39.363Z,61.42
2019-01-25T10:24:39.098Z,60.90
2019-01-25T10:25:39.088Z,61.01
2019-01-25T10:26:39.074Z,60.77
2019-01-25T10:27:39.064Z,60.43
2019-01-25T10:28:39.051Z,59.67
2019-01-25T10:29:39.043Z,58.10
2019-01-25T10:30:39.030Z,55.95
2019-01-25T10:31:39.017Z,54.02
2019-01-25T10:32:39.007Z,52.93
2019-01-25T10:33:38.994Z,51.25
2019-01-25T10:34:38.984Z,50.29
2019-01-25T10:35:38.981Z,49.10
2019-01-25T10:36:38.966Z,48.44
2019-01-25T10:37:38.955Z,48.21
2019-01-25T10:38:38.939Z,46.72
2019-01-25T10:39:38.928Z,45.05
2019-01-25T10:40:38.925Z,45.11
2019-01-25T10:41:38.906Z,46.60
2019-01-25T10:42:44.277Z,47.76
2019-01-25T10:43:39.921Z,48.36
2019-01-25T10:44:38.875Z,46.58
2019-01-25T10:45:38.866Z,45.06
2019-01-25T10:46:38.852Z,46.44
2019-01-25T10:47:40.843Z,46.89
2019-01-25T10:48:38.830Z,47.52
2019-01-25T10:49:38.820Z,47.52
2019-01-25T10:50:38.808Z,46.91
2019-01-25T10:51:38.809Z,46.81
2019-01-25T10:52:38.789Z,46.94
2019-01-25T10:53:38.778Z,47.46
2019-01-25T10:54:38.769Z,47.22
2019-01-25T10:55:39.153Z,46.91
2019-01-25T10:56:41.934Z,47.00
2019-01-25T10:57:38.730Z,46.13
2019-01-25T10:58:38.717Z,45.81
2019-01-25T10:59:38.704Z,46.02
2019-01-25T11:00:38.695Z,45.17
2019-01-25T11:01:38.685Z,44.96
2019-01-25T11:02:38.677Z,44.36
2019-01-25T11:03:38.658Z,45.86
2019-01-25T11:04:38.649Z,46.85
2019-01-25T11:05:38.635Z,48.85
2019-01-25T11:06:38.622Z,49.16
2019-01-25T11:07:38.618Z,48.41
2019-01-25T11:08:38.602Z,47.50
2019-01-25T11:09:38.599Z,48.10
2019-01-25T11:10:38.583Z,48.51
2019-01-25T11:11:38.567Z,47.43
2019-01-25T11:12:38.563Z,45.06
2019-01-25T11:13:38.550Z,43.18
2019-01-25T11:14:38.539Z,42.93
2019-01-25T11:15:38.524Z,42.21
2019-01-25T11:16:38.509Z,42.29
2019-01-25T11:17:38.500Z,42.19
2019-01-25T11:18:38.492Z,40.60
2019-01-25T11:19:38.475Z,40.91
2019-01-25T11:20:38.462Z,41.94
2019-01-25T11:21:38.453Z,41.41
2019-01-25T11:22:38.441Z,40.97
2019-01-25T11:23:38.428Z,40.99
2019-01-25T11:24:38.417Z,41.10
2019-01-25T11:25:38.409Z,40.87
2019-01-25T11:26:38.395Z,40.29
2019-01-25T11:27:38.383Z,42.41
2019-01-25T11:28:38.371Z,42.87
2019-01-25T11:29:38.364Z,44.63
2019-01-25T11:30:38.353Z,44.63
2019-01-25T11:31:38.336Z,43.35
2019-01-25T11:32:38.327Z,43.14
2019-01-25T11:33:38.314Z,43.04
2019-01-25T11:34:38.304Z,42.69
2019-01-25T11:35:38.291Z,41.86
2019-01-25T11:36:38.280Z,42.60
2019-01-25T11:37:38.269Z,42.19
2019-01-25T11:38:38.257Z,40.03
2019-01-25T11:39:38.250Z,40.26
2019-01-25T11:40:38.244Z,40.88
2019-01-25T11:41:38.221Z,41.52
2019-01-25T11:42:38.216Z,40.92
2019-01-25T11:43:38.207Z,41.25
2019-01-25T11:44:38.188Z,42.60
2019-01-25T11:45:38.176Z,43.22
2019-01-25T11:46:38.170Z,43.13
2019-01-25T11:47:38.158Z,43.24
2019-01-25T11:48:38.142Z,43.26
2019-01-25T11:49:38.129Z,44.73
2019-01-25T11:50:38.119Z,44.51
2019-01-25T11:51:38.108Z,43.45
2019-01-25T11:52:38.098Z,42.95
2019-01-25T11:53:38.084Z,45.17
2019-01-25T11:54:38.079Z,45.37
2019-01-25T11:55:38.067Z,45.27
2019-01-25T11:56:38.050Z,45.27
2019-01-25T11:57:38.040Z,44.86
2019-01-25T11:58:38.026Z,45.58
2019-01-25T11:59:38.018Z,45.27
2019-01-25T12:00:38.005Z,44.84
2019-01-25T12:01:37.993Z,45.67
2019-01-25T12:02:37.984Z,44.38
2019-01-25T12:03:37.983Z,43.57
2019-01-25T12:04:37.961Z,44.73
2019-01-25T12:05:37.952Z,44.84
2019-01-25T12:06:37.935Z,44.30
2019-01-25T12:07:37.926Z,43.06
2019-01-25T12:08:37.914Z,43.07
2019-01-25T12:09:37.903Z,44.23
2019-01-25T12:10:37.893Z,45.50
2019-01-25T12:11:37.879Z,45.71
2019-01-25T12:12:37.877Z,45.17
2019-01-25T12:13:37.858Z,44.96
2019-01-25T12:14:37.846Z,45.40
2019-01-25T12:15:37.843Z,45.79
2019-01-25T12:16:37.823Z,45.58
2019-01-25T12:17:37.820Z,45.06
2019-01-25T12:18:37.807Z,44.96
2019-01-25T12:19:37.791Z,44.57
2019-01-25T12:20:37.783Z,45.17
2019-01-25T12:21:37.771Z,44.78
2019-01-25T12:22:37.826Z,44.88
2019-01-25T12:23:37.749Z,44.88
2019-01-25T12:24:37.736Z,45.21
2019-01-25T12:25:37.777Z,45.19
2019-01-25T12:26:37.714Z,44.78
2019-01-25T12:27:37.711Z,45.19
2019-01-25T12:28:37.696Z,46.64
2019-01-25T12:29:37.679Z,45.52
2019-01-25T12:30:38.369Z,45.86
2019-01-25T12:31:37.656Z,46.89
2019-01-25T12:32:37.646Z,46.38
2019-01-25T12:33:37.641Z,46.61
2019-01-25T12:34:37.623Z,46.71
2019-01-25T12:35:37.624Z,47.75
2019-01-25T12:36:37.599Z,46.63
2019-01-25T12:37:37.598Z,47.46
2019-01-25T12:38:37.581Z,48.19
2019-01-25T12:39:37.568Z,48.73
2019-01-25T12:40:41.812Z,48.94
2019-01-25T12:41:37.542Z,49.46
2019-01-25T12:42:37.532Z,49.38
2019-01-25T12:43:37.522Z,50.23
2019-01-25T12:44:37.521Z,50.84
2019-01-25T12:45:37.505Z,50.61
2019-01-25T12:46:37.489Z,50.40
2019-01-25T12:47:37.478Z,50.27
2019-01-25T12:48:37.471Z,49.62
2019-01-25T12:49:37.462Z,48.79
2019-01-25T12:50:37.448Z,49.31
2019-01-25T12:51:37.432Z,49.52
2019-01-25T12:52:37.421Z,50.04
2019-01-25T12:53:37.416Z,50.14
2019-01-25T12:54:37.402Z,49.62
2019-01-25T12:55:37.388Z,50.17
2019-01-25T12:56:37.377Z,49.96
2019-01-25T12:57:37.364Z,50.40
2019-01-25T12:58:37.354Z,50.81
2019-01-25T12:59:37.345Z,50.92
2019-01-25T13:00:37.332Z,51.15
2019-01-25T13:01:37.327Z,51.67
2019-01-25T13:02:37.312Z,51.25
2019-01-25T13:03:37.298Z,51.65
2019-01-25T13:04:37.291Z,51.42
2019-01-25T13:05:37.279Z,52.04
2019-01-25T13:06:37.269Z,50.81
2019-01-25T13:07:37.258Z,51.00
2019-01-25T13:08:37.244Z,51.20
2019-01-25T13:09:37.239Z,50.89
2019-01-25T13:10:37.224Z,51.19
2019-01-25T13:11:37.218Z,51.19
2019-01-25T13:12:37.204Z,51.06
2019-01-25T13:13:37.197Z,50.95
2019-01-25T13:14:37.178Z,50.75
2019-01-25T13:15:37.167Z,50.43
2019-01-25T13:16:37.162Z,50.58
2019-01-25T13:17:37.143Z,51.54
2019-01-25T13:18:37.134Z,52.06
2019-01-25T13:19:37.128Z,52.38
2019-01-25T13:20:39.532Z,52.38
2019-01-25T13:21:37.099Z,52.38
2019-01-25T13:22:37.090Z,52.27
2019-01-25T13:23:37.131Z,52.04
2019-01-25T13:24:37.066Z,51.83
2019-01-25T13:25:37.061Z,50.89
2019-01-25T13:26:37.049Z,51.52
2019-01-25T13:27:37.036Z,51.31
2019-01-25T13:28:41.628Z,50.79
2019-01-25T13:29:37.012Z,51.20
2019-01-25T13:30:36.999Z,51.94
2019-01-25T13:31:36.991Z,51.73
2019-01-25T13:32:36.983Z,51.42
2019-01-25T13:33:36.972Z,50.97
2019-01-25T13:34:36.956Z,51.19
2019-01-25T13:35:36.943Z,51.29
2019-01-25T13:36:36.939Z,50.64
2019-01-25T13:37:36.934Z,50.95
2019-01-25T13:38:36.922Z,50.95
2019-01-25T13:39:36.924Z,50.56
2019-01-25T13:40:36.935Z,51.00
2019-01-25T13:41:36.884Z,51.00
2019-01-25T13:42:36.878Z,51.54
2019-01-25T13:43:39.117Z,51.56
2019-01-25T13:44:36.879Z,52.09
2019-01-25T13:45:36.882Z,51.98
2019-01-25T13:46:36.821Z,52.27
2019-01-25T13:47:36.811Z,51.44
2019-01-25T13:48:36.807Z,51.33
2019-01-25T13:49:36.789Z,51.02
2019-01-25T13:50:36.779Z,51.54
2019-01-25T13:51:36.768Z,52.17
2019-01-25T13:52:36.757Z,52.53
2019-01-25T13:53:36.747Z,53.15
2019-01-25T13:54:36.734Z,53.25
2019-01-25T13:55:36.725Z,53.02
2019-01-25T13:56:36.711Z,53.02
2019-01-25T13:57:36.702Z,52.92
2019-01-25T13:58:36.689Z,53.13
2019-01-25T13:59:36.679Z,52.40
2019-01-25T14:00:36.671Z,52.50
2019-01-25T14:01:36.658Z,53.02
2019-01-25T14:02:36.652Z,52.71
2019-01-25T14:03:36.639Z,52.81
2019-01-25T14:04:36.631Z,53.05
2019-01-25T14:05:36.620Z,53.36
2019-01-25T14:06:36.605Z,53.60
2019-01-25T14:07:36.591Z,53.60
2019-01-25T14:08:36.589Z,53.49
2019-01-25T14:09:36.575Z,53.49
2019-01-25T14:10:36.562Z,53.91
2019-01-25T14:11:36.550Z,54.32
2019-01-25T14:12:36.542Z,54.53
2019-01-25T14:13:36.535Z,54.85
2019-01-25T14:14:36.516Z,54.95
2019-01-25T14:15:36.509Z,54.74
2019-01-25T14:16:36.494Z,55.29
2019-01-25T14:17:36.481Z,55.92
2019-01-25T14:18:36.472Z,55.47
2019-01-25T14:19:36.461Z,55.60
2019-01-25T14:20:36.450Z,55.60
2019-01-25T14:21:36.435Z,55.37
2019-01-25T14:22:36.427Z,55.47
2019-01-25T14:23:36.421Z,55.57
2019-01-25T14:24:36.409Z,55.78
2019-01-25T14:25:36.397Z,55.78
2019-01-25T14:26:36.387Z,56.17
2019-01-25T14:27:36.371Z,57.45
2019-01-25T14:28:36.357Z,58.42
2019-01-25T14:29:36.351Z,59.21
2019-01-25T14:31:36.329Z,60.36
2019-01-25T14:32:36.312Z,60.57
2019-01-25T14:33:36.301Z,60.22
2019-01-25T14:34:36.289Z,59.78
2019-01-25T14:35:36.279Z,59.05
2019-01-25T14:36:36.274Z,58.60
2019-01-25T14:37:36.254Z,58.29
2019-01-25T14:38:36.245Z,58.47
2019-01-25T14:39:36.235Z,57.95
2019-01-25T14:40:36.224Z,58.16
2019-01-25T14:41:36.211Z,57.74
2019-01-25T14:42:36.200Z,57.53
2019-01-25T14:43:36.193Z,57.33
2019-01-25T14:44:36.178Z,57.84
2019-01-25T14:45:36.174Z,57.95
2019-01-25T14:46:36.154Z,58.42
2019-01-25T14:47:36.154Z,59.05
2019-01-25T14:48:38.160Z,59.47
2019-01-25T14:49:36.121Z,59.57
2019-01-25T14:50:36.116Z,59.47
2019-01-25T14:51:36.097Z,59.02
2019-01-25T14:52:36.087Z,58.60
2019-01-25T14:53:36.081Z,58.70
2019-01-25T14:54:36.065Z,58.81
2019-01-25T14:55:36.052Z,59.02
2019-01-25T14:56:36.048Z,59.33
2019-01-25T14:57:36.031Z,59.62
2019-01-25T14:58:36.024Z,58.99
2019-01-25T14:59:36.014Z,59.10
2019-01-25T15:00:35.999Z,59.10
2019-01-25T15:01:35.986Z,59.31
2019-01-25T15:02:35.975Z,58.99
2019-01-25T15:03:35.968Z,59.10
2019-01-25T15:04:35.956Z,58.68
2019-01-25T15:05:35.943Z,58.99
2019-01-25T15:06:35.933Z,58.89
2019-01-25T15:07:35.922Z,59.17
2019-01-25T15:08:35.910Z,58.99
2019-01-25T15:09:35.896Z,58.68
2019-01-25T15:10:35.889Z,59.02
2019-01-25T15:11:35.880Z,59.99
2019-01-25T15:12:35.862Z,60.65
2019-01-25T15:13:35.854Z,61.71
2019-01-25T15:23:35.742Z,62.97
2019-01-25T15:24:35.726Z,63.07
2019-01-25T15:25:35.718Z,62.66
2019-01-25T15:26:35.703Z,62.34
